Meteorología y climatología de Navarra
Datos de la estación - Meteo Navarra

Estación de Sartaguda GN

Altitud 310 m.


Datos desde el 10/10/2019 hasta el 11/10/2019 en horario solar
Los datos son PROVISIONALES

Anterior Página 1 de 1 Siguiente Descargar: Formato para Excel 2000 o superior   Formato csv   Formato para OpenOffice Calc
Fecha Temperatura Humedad relativa Radiación global Insolación Precipitación Vel. viento 10 m Vel. viento 10 m Dir. viento 10 m
ºC % W/m² s l/m² m/s km/h º
10/10/2019 0:00 10.5 76 0.0 0 0.0 1.2 4.2 297
10/10/2019 0:10 10.5 76 0.0 0 0.0 1.7 6.1 299
10/10/2019 0:20 10.8 75 0.0 0 0.0 1.7 6.0 324
10/10/2019 0:30 9.9 77 0.0 0 0.0 0.4 1.6 63
10/10/2019 0:40 9.4 79 0.0 0 0.0 0.8 2.7 272
10/10/2019 0:50 9.4 82 0.0 0 0.0 1.5 5.5 308
10/10/2019 1:00 9.7 81 0.0 0 0.0 1.8 6.5 313
10/10/2019 1:10 9.7 82 0.0 0 0.0 1.8 6.6 311
10/10/2019 1:20 9.6 82 0.0 0 0.0 1.6 5.8 296
10/10/2019 1:30 9.6 81 0.0 0 0.0 2.1 7.5 300
10/10/2019 1:40 9.5 81 0.0 0 0.0 2.0 7.1 317
10/10/2019 1:50 9.4 81 0.0 0 0.0 2.4 8.7 316
10/10/2019 2:00 9.6 81 0.0 0 0.0 2.7 9.5 314
10/10/2019 2:10 9.5 81 0.0 0 0.0 2.2 7.9 312
10/10/2019 2:20 9.4 82 0.0 0 0.0 1.8 6.6 315
10/10/2019 2:30 9.4 82 0.0 0 0.0 2.1 7.6 311
10/10/2019 2:40 9.3 82 0.0 0 0.0 2.0 7.1 321
10/10/2019 2:50 9.4 82 0.0 0 0.0 2.3 8.4 325
10/10/2019 3:00 9.6 81 0.0 0 0.0 2.2 7.8 330
10/10/2019 3:10 9.6 81 0.0 0 0.0 2.2 8.0 321
10/10/2019 3:20 9.7 81 0.0 0 0.0 1.0 3.6 309
10/10/2019 3:30 9.4 82 0.0 0 0.0 1.7 6.0 310
10/10/2019 3:40 9.4 82 0.0 0 0.0 2.2 8.0 318
10/10/2019 3:50 9.4 82 0.0 0 0.0 2.1 7.6 325
10/10/2019 4:00 9.5 82 0.0 0 0.0 2.2 7.8 322
10/10/2019 4:10 9.4 82 0.0 0 0.0 1.7 6.0 319
10/10/2019 4:20 9.1 83 0.0 0 0.0 1.8 6.4 298
10/10/2019 4:30 9.0 84 0.0 0 0.0 1.4 5.1 328
10/10/2019 4:40 8.9 84 0.0 0 0.0 1.2 4.4 296
10/10/2019 4:50 8.5 85 0.0 0 0.0 1.9 6.9 292
10/10/2019 5:00 8.6 86 0.0 0 0.0 2.5 9.1 320
10/10/2019 5:10 8.6 85 0.0 0 0.0 2.8 10.0 326
10/10/2019 5:20 8.6 85 0.0 0 0.0 2.1 7.6 325
10/10/2019 5:30 8.7 85 0.0 0 0.0 2.5 8.9 326
10/10/2019 5:40 8.8 85 0.0 0 0.0 2.5 8.9 322
10/10/2019 5:50 8.6 86 0.0 0 0.0 2.4 8.6 316
10/10/2019 6:00 8.5 86 0.0 0 0.0 1.9 6.7 309
10/10/2019 6:10 8.4 87 0.0 0 0.0 2.6 9.2 317
10/10/2019 6:20 8.4 86 0.0 0 0.0 2.1 7.7 315
10/10/2019 6:30 8.4 86 17.8 0 0.0 2.4 8.6 314
10/10/2019 6:40 8.4 86 36.6 500 0.0 3.0 10.8 311
10/10/2019 6:50 8.8 85 58.9 600 0.0 3.0 10.7 312
10/10/2019 7:00 9.2 83 84.6 600 0.0 2.3 8.1 324
10/10/2019 7:10 9.6 83 112.5 600 0.0 2.7 9.8 331
10/10/2019 7:20 9.9 81 142.0 600 0.0 3.4 12.4 326
10/10/2019 7:30 10.2 80 172.3 600 0.0 4.1 14.6 326
10/10/2019 7:40 10.4 78 203.0 600 0.0 3.0 10.8 331
10/10/2019 7:50 11.0 77 232.6 600 0.0 2.1 7.7 344
10/10/2019 8:00 11.6 75 263.3 600 0.0 2.2 7.9 332
10/10/2019 8:10 12.3 72 293.0 600 0.0 1.6 5.6 320
10/10/2019 8:20 12.9 70 324.0 600 0.0 2.3 8.2 304
10/10/2019 8:30 13.2 68 354.3 600 0.0 2.6 9.3 302
10/10/2019 8:40 13.7 66 382.5 600 0.0 2.5 8.9 301
10/10/2019 8:50 14.2 65 409.3 600 0.0 2.6 9.5 324
10/10/2019 9:00 14.8 62 436.5 600 0.0 3.2 11.7 326
10/10/2019 9:10 15.4 61 461.9 600 0.0 3.1 11.0 336
10/10/2019 9:20 15.9 61 486.4 600 0.0 2.7 9.8 340
10/10/2019 9:30 16.4 59 509.3 600 0.0 2.5 9.1 326
10/10/2019 9:40 17.0 53 532.9 600 0.0 2.4 8.5 294
10/10/2019 9:50 17.5 50 552.0 600 0.0 2.3 8.3 339
10/10/2019 10:00 17.9 48 572.1 600 0.0 2.0 7.1 333
10/10/2019 10:10 18.2 49 590.6 600 0.0 1.8 6.3 317
10/10/2019 10:20 18.5 47 605.3 600 0.0 1.9 6.9 323
10/10/2019 10:30 18.7 46 619.7 600 0.0 1.6 5.7 324
10/10/2019 10:40 19.1 45 634.4 600 0.0 1.5 5.4 2
10/10/2019 10:50 19.5 44 646.1 600 0.0 1.4 5.1 336
10/10/2019 11:00 19.8 43 657.2 600 0.0 1.8 6.4 352
10/10/2019 11:10 19.6 43 666.9 600 0.0 1.5 5.5 1
10/10/2019 11:20 20.0 43 672.8 600 0.0 1.0 3.4 88
10/10/2019 11:30 20.3 42 678.8 600 0.0 1.3 4.8 346
10/10/2019 11:40 20.2 41 684.5 600 0.0 0.8 3.0 312
10/10/2019 11:50 20.8 40 686.9 600 0.0 1.0 3.6 237
10/10/2019 12:00 21.0 40 689.7 600 0.0 1.4 5.1 297
10/10/2019 12:10 21.1 38 685.9 600 0.0 1.4 5.0 341
10/10/2019 12:20 21.2 36 686.5 600 0.0 1.3 4.6 299
10/10/2019 12:30 21.4 36 683.2 600 0.0 1.6 5.7 333
10/10/2019 12:40 21.3 37 678.7 600 0.0 2.0 7.2 315
10/10/2019 12:50 21.6 38 669.2 600 0.0 1.0 3.5 275
10/10/2019 13:00 22.0 37 660.3 600 0.0 1.6 5.6 338
10/10/2019 13:10 22.1 36 647.8 600 0.0 0.8 3.0 329
10/10/2019 13:20 22.3 36 635.3 600 0.0 1.0 3.7 15
10/10/2019 13:30 23.1 34 620.5 600 0.0 0.8 2.8 285
10/10/2019 13:40 23.2 34 603.9 600 0.0 0.8 3.0 256
10/10/2019 13:50 23.3 35 587.8 600 0.0 0.9 3.3 316
10/10/2019 14:00 23.5 34 565.6 600 0.0 0.6 2.3 333
10/10/2019 14:10 23.6 34 547.1 600 0.0 0.8 3.0 237
10/10/2019 14:20 23.7 35 526.9 600 0.0 1.0 3.5 169
10/10/2019 14:30 23.8 35 504.8 600 0.0 1.1 4.0 146
10/10/2019 14:40 23.8 35 481.0 600 0.0 1.3 4.6 139
10/10/2019 14:50 23.5 34 454.9 600 0.0 1.3 4.6 146
10/10/2019 15:00 23.6 34 426.5 600 0.0 0.9 3.2 58
10/10/2019 15:10 23.6 34 398.5 600 0.0 0.9 3.2 59
10/10/2019 15:20 23.5 36 371.4 600 0.0 1.4 5.2 146
10/10/2019 15:30 23.4 36 342.3 600 0.0 1.2 4.2 134
10/10/2019 15:40 23.4 35 311.1 600 0.0 0.3 1.2 93
10/10/2019 15:50 23.2 36 280.6 600 0.0 0.9 3.3 135
10/10/2019 16:00 23.1 36 248.9 600 0.0 0.7 2.6 125
10/10/2019 16:10 23.0 36 219.4 600 0.0 1.0 3.7 119
10/10/2019 16:20 22.8 36 187.9 600 0.0 0.8 2.7 142
10/10/2019 16:30 22.5 40 157.8 600 0.0 1.2 4.2 136
10/10/2019 16:40 22.3 39 129.1 600 0.0 1.4 5.1 151
10/10/2019 16:50 21.9 39 101.3 600 0.0 1.3 4.8 176
10/10/2019 17:00 21.8 40 74.3 600 0.0 1.0 3.7 171
10/10/2019 17:10 21.7 41 49.8 600 0.0 1.0 3.6 179
10/10/2019 17:20 21.7 46 25.4 224 0.0 0.3 1.2 200
10/10/2019 17:30 21.3 49 2.1 0 0.0 0.4 1.6 226
10/10/2019 17:40 20.5 52 0.0 0 0.0 0.6 2.2 182
10/10/2019 17:50 19.8 53 0.0 0 0.0 0.3 1.2 175
10/10/2019 18:00 19.0 57 0.0 0 0.0 0.6 2.2 138
10/10/2019 18:10 18.0 59 0.0 0 0.0 0.9 3.1 124
10/10/2019 18:20 17.5 59 0.0 0 0.0 0.5 1.7 104
10/10/2019 18:30 16.6 62 0.0 0 0.0 1.0 3.4 77
10/10/2019 18:40 16.3 63 0.0 0 0.0 0.3 1.0 126
10/10/2019 18:50 15.8 65 0.0 0 0.0 1.0 3.4 54
10/10/2019 19:00 15.3 65 0.0 0 0.0 1.2 4.4 82
10/10/2019 19:10 14.9 66 0.0 0 0.0 1.1 4.0 72
10/10/2019 19:20 14.5 67 0.0 0 0.0 0.9 3.1 63
10/10/2019 19:30 14.2 69 0.0 0 0.0 0.4 1.4 98
10/10/2019 19:40 13.6 71 0.0 0 0.0 1.0 3.5 119
10/10/2019 19:50 13.4 74 0.0 0 0.0 1.3 4.8 133
10/10/2019 20:00 13.3 72 0.0 0 0.0 1.5 5.5 135
10/10/2019 20:10 13.3 71 0.0 0 0.0 0.6 2.0 151
10/10/2019 20:20 13.2 70 0.0 0 0.0 0.3 1.0 143
10/10/2019 20:30 12.8 73 0.0 0 0.0 0.4 1.5 125
10/10/2019 20:40 12.5 73 0.0 0 0.0 0.2 0.8 138
10/10/2019 20:50 12.3 75 0.0 0 0.0 0.4 1.5 90
10/10/2019 21:00 12.1 77 0.0 0 0.0 0.3 1.2 61
10/10/2019 21:10 12.1 78 0.0 0 0.0 0.7 2.4 328
10/10/2019 21:20 12.0 77 0.0 0 0.0 0.5 1.7 273
10/10/2019 21:30 11.7 79 0.0 0 0.0 0.5 1.8 239
10/10/2019 21:40 11.5 79 0.0 0 0.0 0.4 1.4 307
10/10/2019 21:50 11.4 79 0.0 0 0.0 0.3 1.2 286
10/10/2019 22:00 10.9 83 0.0 0 0.0 0.7 2.4 192
10/10/2019 22:10 11.0 81 0.0 0 0.0 0.4 1.5 214
10/10/2019 22:20 11.0 81 0.0 0 0.0 0.3 1.1 148
10/10/2019 22:30 10.8 82 0.0 0 0.0 0.3 1.1 52
10/10/2019 22:40 10.5 85 0.0 0 0.0 0.6 2.2 106
10/10/2019 22:50 10.4 87 0.0 0 0.0 0.5 1.9 168
10/10/2019 23:00 10.4 84 0.0 0 0.0 0.6 2.2 35
10/10/2019 23:10 10.2 83 0.0 0 0.0 0.8 3.0 88
10/10/2019 23:20 10.2 83 0.0 0 0.0 0.1 0.4 127
10/10/2019 23:30 10.0 83 0.0 0 0.0 0.5 1.8 183
10/10/2019 23:40 10.0 83 0.0 0 0.0 0.9 3.4 181
10/10/2019 23:50 9.9 82 0.0 0 0.0 1.3 4.8 145
Anterior Página 1 de 1 Siguiente

NOTA: Tipo de datos según el color:
   - Valores diarios o 10 minutos correctos
   - Valores diarios calculados a partir de un número de datos 10 minutos menor que 144 y mayor que 120, o de un número de datos semihorarios menor que 48 y mayor que 40 (caso de las estaciones de Riegos de Navarra y del MARM)
   - Valores diez minutos estimados


Contacto        Enlaces        Aviso legal